createdAt,value
2023-05-09T00:01:14.332Z,65.55
2023-05-09T00:03:45.066Z,65.20
2023-05-09T00:06:15.712Z,65.36
2023-05-09T00:08:46.206Z,65.28
2023-05-09T00:11:16.720Z,65.25
2023-05-09T00:13:49.412Z,65.69
2023-05-09T00:16:24.449Z,65.23
2023-05-09T00:18:54.760Z,65.33
2023-05-09T00:21:25.119Z,64.92
2023-05-09T00:23:55.322Z,65.35
2023-05-09T00:26:26.586Z,65.26
2023-05-09T00:28:59.411Z,65.46
2023-05-09T00:31:29.663Z,65.15
2023-05-09T00:33:59.979Z,65.63
2023-05-09T00:36:30.224Z,65.52
2023-05-09T00:39:02.820Z,65.89
2023-05-09T00:41:33.018Z,65.82
2023-05-09T00:44:06.203Z,65.88
2023-05-09T00:46:36.907Z,65.94
2023-05-09T00:49:08.409Z,66.38
2023-05-09T00:51:42.449Z,66.26
2023-05-09T00:54:13.119Z,66.42
2023-05-09T00:56:43.366Z,66.59
2023-05-09T00:59:17.536Z,66.43
2023-05-09T01:01:47.948Z,66.73
2023-05-09T01:04:18.658Z,66.72
2023-05-09T01:06:57.645Z,66.54
2023-05-09T01:09:37.337Z,66.81
2023-05-09T01:12:17.177Z,67.01
2023-05-09T01:14:58.619Z,66.69
2023-05-09T01:17:38.237Z,66.60
2023-05-09T01:20:17.916Z,66.62
2023-05-09T01:22:52.866Z,66.83
2023-05-09T01:25:53.516Z,66.67
2023-05-09T01:28:38.958Z,66.69
2023-05-09T01:31:12.936Z,66.60
2023-05-09T01:33:48.980Z,66.51
2023-05-09T01:36:22.654Z,67.06
2023-05-09T01:38:55.008Z,67.45
2023-05-09T01:41:27.720Z,67.08
2023-05-09T01:43:59.885Z,66.92
2023-05-09T01:46:33.453Z,67.44
2023-05-09T01:49:05.740Z,67.17
2023-05-09T01:51:37.998Z,67.22
2023-05-09T01:54:09.937Z,67.29
2023-05-09T01:56:41.311Z,67.14
2023-05-09T01:59:16.828Z,67.22
2023-05-09T02:01:51.149Z,67.35
2023-05-09T02:04:22.224Z,67.46
2023-05-09T02:06:53.529Z,67.52
2023-05-09T02:09:23.429Z,67.50
2023-05-09T02:11:53.825Z,67.94
2023-05-09T02:14:27.200Z,68.28
2023-05-09T02:17:00.336Z,68.52
2023-05-09T02:19:30.561Z,68.94
2023-05-09T02:22:00.849Z,69.48
2023-05-09T02:24:31.121Z,69.20
2023-05-09T02:27:04.213Z,69.29
2023-05-09T02:29:40.834Z,69.67
2023-05-09T02:32:20.508Z,70.49
2023-05-09T02:34:54.032Z,70.37
2023-05-09T02:37:24.953Z,71.18
2023-05-09T02:39:55.250Z,71.12
2023-05-09T02:42:33.064Z,71.36
2023-05-09T02:45:03.980Z,71.23
2023-05-09T02:47:36.814Z,71.77
2023-05-09T02:50:07.848Z,71.33
2023-05-09T02:52:39.762Z,70.92
2023-05-09T02:55:14.420Z,70.47
2023-05-09T02:57:46.093Z,70.06
2023-05-09T03:00:18.590Z,69.83
2023-05-09T03:02:52.288Z,70.54
2023-05-09T03:05:23.312Z,70.05
2023-05-09T03:07:55.955Z,70.60
2023-05-09T03:10:26.207Z,70.32
2023-05-09T03:12:56.426Z,70.76
2023-05-09T03:15:26.654Z,70.67
2023-05-09T03:18:00.237Z,71.37
2023-05-09T03:20:32.785Z,70.85
2023-05-09T03:23:02.945Z,71.11
2023-05-09T03:25:33.183Z,71.56
2023-05-09T03:28:03.412Z,71.79
2023-05-09T03:30:33.734Z,71.68
2023-05-09T03:33:09.014Z,72.29
2023-05-09T03:35:39.342Z,72.38
2023-05-09T03:38:10.216Z,72.97
2023-05-09T03:40:41.384Z,73.07
2023-05-09T03:43:13.587Z,72.79
2023-05-09T03:45:44.327Z,72.93
2023-05-09T03:48:18.443Z,73.01
2023-05-09T03:50:53.428Z,72.60
2023-05-09T03:53:24.632Z,72.21
2023-05-09T03:55:56.383Z,72.73
2023-05-09T03:58:29.942Z,72.55
2023-05-09T04:01:01.489Z,72.22
2023-05-09T04:03:34.868Z,72.26
2023-05-09T04:06:05.850Z,71.62
2023-05-09T04:08:43.055Z,71.65
2023-05-09T04:11:13.436Z,71.14
2023-05-09T04:13:46.998Z,70.62
2023-05-09T04:16:33.383Z,70.89
2023-05-09T04:19:07.471Z,70.66
2023-05-09T04:21:38.919Z,71.23
2023-05-09T04:24:16.088Z,70.90
2023-05-09T04:26:48.920Z,70.91
2023-05-09T04:29:26.913Z,70.45
2023-05-09T04:31:59.568Z,71.58
2023-05-09T04:34:33.677Z,71.13
2023-05-09T04:37:11.364Z,71.24
2023-05-09T04:39:41.739Z,71.81
2023-05-09T04:42:21.310Z,71.51
2023-05-09T04:44:54.456Z,72.39
2023-05-09T04:47:26.636Z,72.04
2023-05-09T04:49:59.194Z,71.90
2023-05-09T04:52:29.965Z,71.58
2023-05-09T04:55:00.146Z,71.32
2023-05-09T04:57:37.059Z,71.81
2023-05-09T05:00:11.650Z,71.94
2023-05-09T05:02:42.634Z,72.08
2023-05-09T05:05:17.994Z,72.56
2023-05-09T05:07:54.691Z,72.13
2023-05-09T05:10:28.807Z,72.71
2023-05-09T05:13:06.809Z,73.09
2023-05-09T05:15:38.850Z,72.84
2023-05-09T05:18:10.371Z,72.53
2023-05-09T05:20:45.113Z,73.06
2023-05-09T05:23:15.454Z,72.16
2023-05-09T05:25:45.843Z,70.94
2023-05-09T05:28:17.221Z,70.70
2023-05-09T05:30:47.778Z,70.95
2023-05-09T05:33:17.966Z,71.71
2023-05-09T05:35:51.672Z,72.02
2023-05-09T05:38:21.855Z,72.40
2023-05-09T05:40:55.597Z,71.52
2023-05-09T05:43:27.285Z,70.50
2023-05-09T05:45:58.267Z,70.94
2023-05-09T05:48:29.780Z,70.11
2023-05-09T05:51:04.413Z,70.50
2023-05-09T05:53:35.691Z,69.39
2023-05-09T05:56:06.095Z,70.10
2023-05-09T05:58:36.936Z,69.82
2023-05-09T06:01:09.814Z,69.78
2023-05-09T06:03:41.316Z,69.36
2023-05-09T06:06:15.182Z,69.71
2023-05-09T06:08:46.399Z,69.37
2023-05-09T06:11:17.662Z,69.11
2023-05-09T06:13:48.166Z,69.38
2023-05-09T06:16:20.134Z,83.98
2023-05-09T06:18:56.013Z,100.00
2023-05-09T06:21:29.410Z,98.92
2023-05-09T06:24:09.832Z,76.54
2023-05-09T06:26:44.685Z,89.78
2023-05-09T06:29:15.832Z,78.17
2023-05-09T06:31:48.452Z,86.62
2023-05-09T06:34:19.901Z,78.87
2023-05-09T06:36:53.822Z,67.05
2023-05-09T06:39:24.056Z,68.86
2023-05-09T06:41:54.280Z,63.05
2023-05-09T06:44:34.144Z,63.65
2023-05-09T06:47:04.770Z,64.64
2023-05-09T06:49:34.889Z,65.60
2023-05-09T06:52:08.030Z,65.66
2023-05-09T06:54:39.305Z,66.37
2023-05-09T06:57:09.503Z,66.58
2023-05-09T06:59:39.717Z,66.03
2023-05-09T07:02:10.307Z,66.55
2023-05-09T07:04:40.733Z,67.09
2023-05-09T07:07:13.611Z,67.37
2023-05-09T07:09:45.132Z,68.25
2023-05-09T07:12:15.349Z,68.21
2023-05-09T07:14:45.652Z,69.67
2023-05-09T07:17:23.649Z,69.29
2023-05-09T07:19:54.366Z,70.42
2023-05-09T07:22:28.240Z,70.10
2023-05-09T07:25:01.145Z,70.12
2023-05-09T07:27:31.413Z,69.55
2023-05-09T07:30:01.614Z,69.40
2023-05-09T07:32:31.852Z,69.62
2023-05-09T07:35:02.181Z,70.05
2023-05-09T07:37:35.487Z,70.54
2023-05-09T07:40:06.499Z,69.78
2023-05-09T07:42:37.346Z,69.12
2023-05-09T07:45:08.959Z,69.70
2023-05-09T07:47:39.434Z,69.96
2023-05-09T07:50:13.249Z,69.72
2023-05-09T07:52:47.532Z,70.39
2023-05-09T07:55:18.018Z,70.48
2023-05-09T07:57:48.466Z,70.59
2023-05-09T08:00:24.315Z,70.24
2023-05-09T08:02:56.889Z,69.70
2023-05-09T08:05:27.332Z,67.92
2023-05-09T08:08:00.181Z,69.47
2023-05-09T08:10:30.916Z,69.00
2023-05-09T08:13:01.249Z,69.57
2023-05-09T08:15:33.724Z,67.68
2023-05-09T08:18:03.909Z,67.33
2023-05-09T08:20:34.881Z,67.08
2023-05-09T08:23:07.469Z,67.41
2023-05-09T08:25:37.750Z,66.62
2023-05-09T08:28:08.201Z,67.27
2023-05-09T08:30:41.229Z,69.35
2023-05-09T08:33:11.542Z,68.51
2023-05-09T08:35:41.841Z,66.75
2023-05-09T08:38:14.697Z,65.25
2023-05-09T08:40:44.966Z,65.52
2023-05-09T08:43:18.840Z,65.47
2023-05-09T08:45:50.767Z,65.06
2023-05-09T08:48:22.580Z,66.71
2023-05-09T08:50:53.730Z,64.60
2023-05-09T08:53:27.433Z,63.00
2023-05-09T08:55:57.870Z,63.38
2023-05-09T08:58:29.506Z,64.09
2023-05-09T09:01:00.011Z,63.24
2023-05-09T09:03:30.668Z,63.02
2023-05-09T09:06:01.859Z,65.01
2023-05-09T09:08:34.841Z,63.94
2023-05-09T09:11:08.457Z,64.91
2023-05-09T09:13:43.941Z,63.94
2023-05-09T09:16:23.372Z,63.46
2023-05-09T09:18:58.502Z,64.87
2023-05-09T09:21:29.093Z,64.28
2023-05-09T09:24:02.215Z,63.64
2023-05-09T09:26:32.680Z,63.69
2023-05-09T09:29:05.534Z,64.29
2023-05-09T09:31:36.610Z,64.58
2023-05-09T09:34:06.978Z,63.99
2023-05-09T09:36:37.274Z,63.56
2023-05-09T09:39:10.095Z,63.98
2023-05-09T09:41:45.060Z,64.17
2023-05-09T09:44:17.069Z,64.07
2023-05-09T09:46:48.624Z,65.05
2023-05-09T09:49:22.028Z,64.36
2023-05-09T09:51:57.625Z,65.27
2023-05-09T09:54:32.300Z,64.68
2023-05-09T09:57:02.973Z,61.98
2023-05-09T09:59:33.184Z,62.85
2023-05-09T10:02:07.998Z,61.12
2023-05-09T10:04:41.792Z,61.92
2023-05-09T10:07:15.054Z,60.17
2023-05-09T10:09:50.165Z,59.53
2023-05-09T10:12:23.067Z,58.20
2023-05-09T10:14:53.573Z,57.79
2023-05-09T10:17:27.733Z,57.91
2023-05-09T10:19:58.799Z,56.47
2023-05-09T10:22:31.457Z,54.12
2023-05-09T10:25:07.206Z,52.64
2023-05-09T10:27:39.295Z,50.80
2023-05-09T10:30:13.033Z,52.01
2023-05-09T10:32:51.158Z,53.58
2023-05-09T10:35:23.202Z,50.38
2023-05-09T10:37:55.549Z,50.67
2023-05-09T10:40:29.025Z,51.99
2023-05-09T10:42:59.147Z,53.18
2023-05-09T10:45:30.100Z,51.98
2023-05-09T10:48:01.927Z,52.16
2023-05-09T10:50:37.850Z,52.67
2023-05-09T10:53:15.230Z,50.22
2023-05-09T10:55:55.877Z,50.78
2023-05-09T10:58:29.377Z,50.79
2023-05-09T11:01:01.437Z,50.58
2023-05-09T11:03:52.430Z,50.56
2023-05-09T11:06:37.055Z,46.50
2023-05-09T11:09:36.175Z,48.15
2023-05-09T11:12:16.161Z,48.68
2023-05-09T11:14:47.767Z,47.60
2023-05-09T11:17:30.808Z,46.88
2023-05-09T11:20:07.366Z,47.64
2023-05-09T11:22:43.237Z,48.25
2023-05-09T11:25:17.252Z,50.37
2023-05-09T11:27:52.405Z,49.99
2023-05-09T11:30:23.778Z,48.82
2023-05-09T11:32:59.161Z,48.35
2023-05-09T11:35:30.637Z,47.70
2023-05-09T11:38:04.530Z,47.96
2023-05-09T11:40:35.887Z,47.53
2023-05-09T11:43:11.335Z,48.09
2023-05-09T11:45:43.740Z,49.68
2023-05-09T11:48:14.054Z,49.05
2023-05-09T11:50:44.317Z,50.36
2023-05-09T11:53:15.193Z,48.36
2023-05-09T11:55:45.074Z,48.22
2023-05-09T11:58:18.520Z,50.03
2023-05-09T12:00:49.267Z,49.34
2023-05-09T12:03:19.659Z,48.81
2023-05-09T12:05:51.550Z,48.67
2023-05-09T12:08:21.982Z,47.73
2023-05-09T12:10:52.428Z,47.63
2023-05-09T12:13:25.242Z,47.28
2023-05-09T12:16:03.186Z,49.29
2023-05-09T12:18:33.823Z,50.25
2023-05-09T12:21:04.574Z,50.28
2023-05-09T12:23:38.001Z,49.35
2023-05-09T12:26:08.930Z,49.57
2023-05-09T12:28:44.323Z,49.88
2023-05-09T12:31:16.193Z,50.06
2023-05-09T12:33:46.461Z,48.54
2023-05-09T12:36:17.030Z,48.49
2023-05-09T12:38:56.546Z,48.19
2023-05-09T12:41:36.986Z,47.90
2023-05-09T12:44:21.968Z,48.64
2023-05-09T12:47:02.991Z,47.89
2023-05-09T12:49:33.915Z,46.87
2023-05-09T12:52:05.062Z,47.32
2023-05-09T12:54:36.130Z,47.43
2023-05-09T12:57:06.663Z,46.91
2023-05-09T12:59:41.321Z,46.46
2023-05-09T13:02:11.534Z,46.47
2023-05-09T13:04:41.835Z,46.48
2023-05-09T13:07:13.337Z,45.24
2023-05-09T13:09:58.502Z,42.94
2023-05-09T13:12:28.888Z,42.45
2023-05-09T13:15:01.921Z,42.32
2023-05-09T13:17:34.532Z,42.60
2023-05-09T13:20:06.896Z,42.50
2023-05-09T13:22:37.461Z,42.83
2023-05-09T13:25:08.838Z,42.26
2023-05-09T13:27:41.620Z,42.17
2023-05-09T13:30:18.566Z,41.37
2023-05-09T13:32:49.855Z,41.57
2023-05-09T13:35:20.586Z,39.48
2023-05-09T13:37:51.205Z,38.43
2023-05-09T13:40:21.625Z,40.97
2023-05-09T13:42:54.909Z,40.97
2023-05-09T13:45:27.721Z,43.26
2023-05-09T13:47:58.120Z,43.65
2023-05-09T13:50:28.680Z,42.32
2023-05-09T13:52:59.347Z,43.02
2023-05-09T13:55:33.530Z,43.17
2023-05-09T13:58:03.659Z,43.72
2023-05-09T14:00:36.968Z,44.42
2023-05-09T14:03:09.646Z,44.66
2023-05-09T14:05:40.041Z,43.64
2023-05-09T14:08:18.763Z,43.18
2023-05-09T14:10:49.106Z,44.17
2023-05-09T14:13:19.516Z,45.03
2023-05-09T14:15:52.423Z,45.47
2023-05-09T14:18:25.018Z,45.27
2023-05-09T14:20:55.182Z,44.53
2023-05-09T14:23:25.380Z,44.23
2023-05-09T14:25:55.585Z,44.84
2023-05-09T14:28:26.189Z,44.78
2023-05-09T14:30:59.014Z,44.93
2023-05-09T14:33:29.546Z,45.14
2023-05-09T14:36:01.485Z,45.14
2023-05-09T14:38:33.555Z,46.03
2023-05-09T14:41:03.838Z,46.41
2023-05-09T14:43:34.015Z,46.54
2023-05-09T14:46:06.928Z,46.93
2023-05-09T14:48:37.333Z,46.94
2023-05-09T14:51:07.863Z,48.00
2023-05-09T14:53:41.987Z,47.59
2023-05-09T14:56:13.501Z,47.90
2023-05-09T14:58:43.846Z,47.23
2023-05-09T15:01:19.226Z,48.23
2023-05-09T15:03:50.907Z,48.19
2023-05-09T15:06:21.146Z,47.97
2023-05-09T15:08:51.284Z,48.97
2023-05-09T15:11:22.524Z,49.30
2023-05-09T15:13:58.599Z,49.18
2023-05-09T15:16:31.780Z,49.04
2023-05-09T15:19:03.851Z,49.97
2023-05-09T15:21:35.959Z,50.04
2023-05-09T15:24:10.159Z,50.72
2023-05-09T15:26:40.879Z,51.26
2023-05-09T15:29:11.236Z,51.59
2023-05-09T15:31:44.122Z,51.84
2023-05-09T15:34:15.862Z,51.36
2023-05-09T15:36:46.253Z,51.32
2023-05-09T15:39:16.728Z,51.70
2023-05-09T15:41:47.902Z,51.88
2023-05-09T15:44:18.151Z,52.33
2023-05-09T15:46:50.939Z,52.66
2023-05-09T15:49:21.728Z,52.58
2023-05-09T15:51:51.911Z,53.45
2023-05-09T15:54:23.581Z,54.13
2023-05-09T15:56:54.320Z,55.00
2023-05-09T15:59:24.601Z,55.72
2023-05-09T16:01:57.563Z,55.06
2023-05-09T16:04:27.852Z,54.93
2023-05-09T16:06:58.554Z,55.01
2023-05-09T16:09:28.720Z,54.26
2023-05-09T16:12:01.087Z,53.55
2023-05-09T16:14:31.567Z,53.35
2023-05-09T16:17:04.843Z,53.68
2023-05-09T16:19:38.496Z,54.08
2023-05-09T16:22:11.051Z,53.70
2023-05-09T16:24:44.318Z,53.34
2023-05-09T16:27:14.965Z,52.90
2023-05-09T16:29:45.511Z,53.54
2023-05-09T16:32:18.364Z,54.01
2023-05-09T16:34:51.604Z,54.84
2023-05-09T16:37:21.925Z,54.80
2023-05-09T16:39:52.282Z,55.53
2023-05-09T16:42:22.492Z,56.62
2023-05-09T16:44:53.024Z,56.68
2023-05-09T16:47:26.010Z,56.70
2023-05-09T16:49:58.102Z,56.57
2023-05-09T16:52:30.824Z,56.92
2023-05-09T16:55:01.355Z,57.12
2023-05-09T16:57:34.497Z,57.82
2023-05-09T17:00:04.639Z,58.00
2023-05-09T17:02:37.597Z,57.93
2023-05-09T17:05:08.636Z,58.13
2023-05-09T17:07:39.004Z,57.61
2023-05-09T17:10:10.449Z,57.20
2023-05-09T17:12:41.140Z,56.68
2023-05-09T17:15:16.253Z,67.94
2023-05-09T17:17:49.963Z,67.55
2023-05-09T17:20:20.201Z,61.52
2023-05-09T17:22:50.436Z,61.74
2023-05-09T17:25:23.630Z,57.66
2023-05-09T17:27:56.471Z,56.55
2023-05-09T17:30:28.215Z,56.47
2023-05-09T17:33:01.016Z,56.95
2023-05-09T17:35:31.293Z,57.31
2023-05-09T17:38:01.524Z,58.20
2023-05-09T17:40:31.938Z,58.66
2023-05-09T17:43:04.456Z,58.71
2023-05-09T17:45:34.684Z,59.03
2023-05-09T17:48:07.575Z,59.81
2023-05-09T17:50:37.827Z,60.36
2023-05-09T17:53:09.018Z,60.80
2023-05-09T17:55:39.286Z,61.22
2023-05-09T17:58:12.192Z,61.36
2023-05-09T18:00:42.317Z,61.56
2023-05-09T18:03:15.276Z,62.13
2023-05-09T18:05:45.632Z,62.18
2023-05-09T18:08:16.087Z,61.99
2023-05-09T18:10:46.486Z,62.48
2023-05-09T18:13:19.339Z,62.98
2023-05-09T18:15:49.505Z,63.03
2023-05-09T18:18:22.639Z,63.81
2023-05-09T18:20:53.027Z,63.68
2023-05-09T18:23:25.226Z,63.91
2023-05-09T18:25:56.771Z,64.23
2023-05-09T18:28:29.118Z,64.84
2023-05-09T18:31:01.541Z,64.97
2023-05-09T18:33:36.965Z,64.74
2023-05-09T18:36:11.513Z,65.09
2023-05-09T18:38:41.970Z,65.14
2023-05-09T18:41:14.059Z,65.56
2023-05-09T18:43:48.386Z,65.83
2023-05-09T18:46:22.045Z,65.83
2023-05-09T18:48:55.375Z,65.62
2023-05-09T18:51:25.898Z,65.60
2023-05-09T18:53:56.998Z,65.54
2023-05-09T18:56:27.189Z,65.62
2023-05-09T18:58:57.566Z,65.75
2023-05-09T19:01:30.613Z,65.83
2023-05-09T19:04:04.798Z,65.42
2023-05-09T19:06:35.124Z,65.42
2023-05-09T19:09:05.890Z,65.38
2023-05-09T19:11:36.258Z,64.97
2023-05-09T19:14:09.045Z,65.05
2023-05-09T19:16:39.322Z,65.20
2023-05-09T19:19:12.185Z,64.94
2023-05-09T19:21:42.509Z,64.92
2023-05-09T19:24:12.962Z,65.16
2023-05-09T19:26:43.216Z,65.71
2023-05-09T19:29:13.483Z,65.81
2023-05-09T19:31:43.851Z,66.24
2023-05-09T19:34:16.812Z,66.43
2023-05-09T19:36:47.137Z,66.31
2023-05-09T19:39:17.389Z,66.83
2023-05-09T19:41:48.241Z,66.82
2023-05-09T19:44:18.332Z,67.03
2023-05-09T19:46:51.123Z,67.42
2023-05-09T19:49:24.028Z,67.35
2023-05-09T19:51:54.642Z,67.37
2023-05-09T19:54:28.731Z,67.37
2023-05-09T19:57:01.267Z,67.45
2023-05-09T19:59:32.692Z,68.14
2023-05-09T20:02:03.029Z,68.39
2023-05-09T20:04:39.086Z,68.51
2023-05-09T20:07:09.524Z,69.01
2023-05-09T20:09:40.039Z,69.31
2023-05-09T20:12:14.734Z,68.82
2023-05-09T20:14:45.226Z,69.28
2023-05-09T20:17:15.498Z,69.83
2023-05-09T20:19:48.291Z,69.67
2023-05-09T20:22:20.758Z,70.02
2023-05-09T20:24:51.377Z,70.06
2023-05-09T20:27:22.247Z,70.64
2023-05-09T20:29:52.582Z,70.87
2023-05-09T20:32:22.719Z,70.83
2023-05-09T20:34:55.400Z,71.34
2023-05-09T20:37:27.852Z,71.36
2023-05-09T20:39:58.375Z,71.84
2023-05-09T20:42:28.693Z,71.98
2023-05-09T20:44:58.806Z,72.18
2023-05-09T20:47:29.354Z,72.04
2023-05-09T20:50:02.096Z,72.13
2023-05-09T20:52:34.564Z,72.12
2023-05-09T20:55:05.612Z,72.58
2023-05-09T20:57:35.492Z,72.30
2023-05-09T21:00:07.792Z,72.37
2023-05-09T21:02:38.068Z,72.47
2023-05-09T21:05:11.472Z,72.84
2023-05-09T21:07:43.916Z,72.85
2023-05-09T21:10:14.198Z,72.82
2023-05-09T21:12:44.594Z,73.02
2023-05-09T21:15:14.957Z,72.71
2023-05-09T21:17:45.081Z,72.93
2023-05-09T21:20:18.418Z,72.71
2023-05-09T21:22:48.636Z,72.89
2023-05-09T21:25:19.391Z,72.90
2023-05-09T21:27:49.470Z,72.95
2023-05-09T21:30:19.972Z,73.09
2023-05-09T21:32:50.083Z,73.28
2023-05-09T21:35:23.132Z,73.07
2023-05-09T21:37:53.394Z,73.09
2023-05-09T21:40:23.458Z,73.65
2023-05-09T21:42:53.528Z,73.70
2023-05-09T21:45:23.570Z,73.71
2023-05-09T21:47:53.765Z,73.98
2023-05-09T21:50:26.811Z,73.69
2023-05-09T21:52:57.660Z,74.12
2023-05-09T21:55:27.970Z,73.93
2023-05-09T21:58:00.072Z,74.44
2023-05-09T22:00:30.258Z,73.85
2023-05-09T22:03:01.307Z,73.83
2023-05-09T22:05:35.372Z,74.00
2023-05-09T22:08:05.563Z,74.32
2023-05-09T22:10:37.901Z,74.52
2023-05-09T22:13:08.186Z,74.39
2023-05-09T22:15:38.363Z,74.48
2023-05-09T22:18:08.970Z,74.62
2023-05-09T22:20:41.990Z,74.84
2023-05-09T22:23:12.030Z,74.78
2023-05-09T22:25:42.068Z,75.15
2023-05-09T22:28:14.122Z,74.99
2023-05-09T22:30:45.039Z,75.24
2023-05-09T22:33:15.223Z,75.31
2023-05-09T22:35:48.888Z,75.29
2023-05-09T22:38:19.009Z,75.49
2023-05-09T22:40:49.176Z,74.99
2023-05-09T22:43:21.715Z,75.18
2023-05-09T22:45:52.997Z,75.07
2023-05-09T22:48:23.743Z,75.13
2023-05-09T22:50:56.909Z,75.13
2023-05-09T22:53:28.425Z,74.90
2023-05-09T22:55:59.637Z,75.12
2023-05-09T22:58:32.093Z,74.95
2023-05-09T23:01:02.309Z,75.80
2023-05-09T23:03:32.491Z,75.59
2023-05-09T23:06:05.335Z,75.66
2023-05-09T23:08:36.307Z,75.81
2023-05-09T23:11:09.361Z,75.98
2023-05-09T23:13:39.614Z,76.02
2023-05-09T23:16:10.545Z,76.40
2023-05-09T23:18:41.019Z,76.70
2023-05-09T23:21:13.734Z,76.50
2023-05-09T23:23:43.858Z,76.58
2023-05-09T23:26:16.101Z,77.08
2023-05-09T23:28:46.323Z,76.82
2023-05-09T23:31:16.655Z,76.63
2023-05-09T23:33:46.952Z,76.54
2023-05-09T23:36:19.792Z,76.82
2023-05-09T23:38:50.036Z,76.93
2023-05-09T23:41:20.220Z,76.94
2023-05-09T23:43:50.420Z,77.24
2023-05-09T23:46:20.644Z,77.39
2023-05-09T23:48:50.819Z,77.38
2023-05-09T23:51:23.602Z,77.88
2023-05-09T23:53:53.753Z,77.86
2023-05-09T23:56:25.481Z,77.67
2023-05-09T23:58:58.259Z,78.18
